<?xml version="1.0" encoding="UTF-8" standalone="no" ?>
<gpx xmlns="http://www.topografix.com/GPX/1/1" xmlns:xsi="http://www.w3.org/2001/XMLSchema-instance" xsi:schemaLocation="http://www.topografix.com/GPX/1/1 http://www.topografix.com/GPX/1/1/gpx.xsd" version="1.1" creator="VisuGPX - https://www.visugpx.com">
  <metadata>
    <name>Cascade verte/pas des voutes</name>
    <desc><![CDATA[belle montée que je n\'arrive pas a courir sur la fin]]></desc>
  </metadata>
  <trk>
    <name><![CDATA[Cascade verte-pas de la voute]]></name>
    <desc><![CDATA[un aller retour. Possibilité de faire une boucle avec le pas de l'allier]]></desc>
    <trkseg>
      <trkpt lat="45.04722" lon="5.36271">
        <ele>306.60000610352</ele>
        <time>2010-11-13T13:50:05.000Z</time>
      </trkpt>
      <trkpt lat="45.04734" lon="5.36266">
        <ele>308.79998779297</ele>
        <time>2010-11-13T13:50:13.000Z</time>
      </trkpt>
      <trkpt lat="45.04752" lon="5.36262">
        <ele>312.79998779297</ele>
        <time>2010-11-13T13:50:27.000Z</time>
      </trkpt>
      <trkpt lat="45.04762" lon="5.36253">
        <ele>313.79998779297</ele>
        <time>2010-11-13T13:50:41.000Z</time>
      </trkpt>
      <trkpt lat="45.04765" lon="5.36246">
        <ele>313.79998779297</ele>
        <time>2010-11-13T13:50:46.000Z</time>
      </trkpt>
      <trkpt lat="45.04785" lon="5.36231">
        <ele>317.60000610352</ele>
        <time>2010-11-13T13:50:59.000Z</time>
      </trkpt>
      <trkpt lat="45.04799" lon="5.36225">
        <ele>321.20001220703</ele>
        <time>2010-11-13T13:51:10.000Z</time>
      </trkpt>
      <trkpt lat="45.04801" lon="5.36224">
        <ele>321.60000610352</ele>
        <time>2010-11-13T13:51:24.000Z</time>
      </trkpt>
      <trkpt lat="45.04795" lon="5.36227">
        <ele>320.39999389648</ele>
        <time>2010-11-13T13:51:37.000Z</time>
      </trkpt>
      <trkpt lat="45.04784" lon="5.36239">
        <ele>317.79998779297</ele>
        <time>2010-11-13T13:51:51.000Z</time>
      </trkpt>
      <trkpt lat="45.0478" lon="5.3629">
        <ele>322.20001220703</ele>
        <time>2010-11-13T13:52:09.000Z</time>
      </trkpt>
      <trkpt lat="45.04781" lon="5.36295">
        <ele>323</ele>
        <time>2010-11-13T13:52:11.000Z</time>
      </trkpt>
      <trkpt lat="45.04782" lon="5.36307">
        <ele>324.39999389648</ele>
        <time>2010-11-13T13:52:18.000Z</time>
      </trkpt>
      <trkpt lat="45.04781" lon="5.36311">
        <ele>324.60000610352</ele>
        <time>2010-11-13T13:52:20.000Z</time>
      </trkpt>
      <trkpt lat="45.04771" lon="5.36326">
        <ele>324.39999389648</ele>
        <time>2010-11-13T13:52:30.000Z</time>
      </trkpt>
      <trkpt lat="45.04769" lon="5.36332">
        <ele>324.60000610352</ele>
        <time>2010-11-13T13:52:34.000Z</time>
      </trkpt>
      <trkpt lat="45.04789" lon="5.36347">
        <ele>328.79998779297</ele>
        <time>2010-11-13T13:52:48.000Z</time>
      </trkpt>
      <trkpt lat="45.04792" lon="5.36352">
        <ele>329.39999389648</ele>
        <time>2010-11-13T13:52:53.000Z</time>
      </trkpt>
      <trkpt lat="45.04809" lon="5.36341">
        <ele>332.79998779297</ele>
        <time>2010-11-13T13:53:11.000Z</time>
      </trkpt>
      <trkpt lat="45.04807" lon="5.36323">
        <ele>331.39999389648</ele>
        <time>2010-11-13T13:53:23.000Z</time>
      </trkpt>
      <trkpt lat="45.04804" lon="5.36311">
        <ele>329.39999389648</ele>
        <time>2010-11-13T13:53:30.000Z</time>
      </trkpt>
      <trkpt lat="45.04807" lon="5.36305">
        <ele>329.60000610352</ele>
        <time>2010-11-13T13:53:43.000Z</time>
      </trkpt>
      <trkpt lat="45.04815" lon="5.36296">
        <ele>330.39999389648</ele>
        <time>2010-11-13T13:53:53.000Z</time>
      </trkpt>
      <trkpt lat="45.04826" lon="5.36293">
        <ele>332.39999389648</ele>
        <time>2010-11-13T13:54:05.000Z</time>
      </trkpt>
      <trkpt lat="45.0483" lon="5.363">
        <ele>334</ele>
        <time>2010-11-13T13:54:15.000Z</time>
      </trkpt>
      <trkpt lat="45.04838" lon="5.36315">
        <ele>337.20001220703</ele>
        <time>2010-11-13T13:54:30.000Z</time>
      </trkpt>
      <trkpt lat="45.04848" lon="5.36324">
        <ele>340</ele>
        <time>2010-11-13T13:54:42.000Z</time>
      </trkpt>
      <trkpt lat="45.04877" lon="5.36323">
        <ele>346</ele>
        <time>2010-11-13T13:54:58.000Z</time>
      </trkpt>
      <trkpt lat="45.04898" lon="5.36322">
        <ele>350</ele>
        <time>2010-11-13T13:55:14.000Z</time>
      </trkpt>
      <trkpt lat="45.049" lon="5.36323">
        <ele>350.39999389648</ele>
        <time>2010-11-13T13:55:16.000Z</time>
      </trkpt>
      <trkpt lat="45.04913" lon="5.36329">
        <ele>353.20001220703</ele>
        <time>2010-11-13T13:55:29.000Z</time>
      </trkpt>
      <trkpt lat="45.04931" lon="5.36331">
        <ele>357</ele>
        <time>2010-11-13T13:55:45.000Z</time>
      </trkpt>
      <trkpt lat="45.04936" lon="5.36334">
        <ele>358</ele>
        <time>2010-11-13T13:55:49.000Z</time>
      </trkpt>
      <trkpt lat="45.04964" lon="5.36359">
        <ele>362.60000610352</ele>
        <time>2010-11-13T13:56:00.000Z</time>
      </trkpt>
      <trkpt lat="45.04976" lon="5.36364">
        <ele>364.60000610352</ele>
        <time>2010-11-13T13:56:04.000Z</time>
      </trkpt>
      <trkpt lat="45.04984" lon="5.36374">
        <ele>365.79998779297</ele>
        <time>2010-11-13T13:56:09.000Z</time>
      </trkpt>
      <trkpt lat="45.05002" lon="5.36398">
        <ele>368</ele>
        <time>2010-11-13T13:56:19.000Z</time>
      </trkpt>
      <trkpt lat="45.05023" lon="5.36411">
        <ele>372</ele>
        <time>2010-11-13T13:56:25.000Z</time>
      </trkpt>
      <trkpt lat="45.0504" lon="5.3642">
        <ele>375.39999389648</ele>
        <time>2010-11-13T13:56:36.000Z</time>
      </trkpt>
      <trkpt lat="45.05022" lon="5.36428">
        <ele>373.20001220703</ele>
        <time>2010-11-13T13:56:49.000Z</time>
      </trkpt>
      <trkpt lat="45.05008" lon="5.36439">
        <ele>372.39999389648</ele>
        <time>2010-11-13T13:56:59.000Z</time>
      </trkpt>
      <trkpt lat="45.05004" lon="5.36443">
        <ele>372.39999389648</ele>
        <time>2010-11-13T13:57:03.000Z</time>
      </trkpt>
      <trkpt lat="45.04999" lon="5.3645">
        <ele>372.79998779297</ele>
        <time>2010-11-13T13:57:07.000Z</time>
      </trkpt>
      <trkpt lat="45.04985" lon="5.36466">
        <ele>373.20001220703</ele>
        <time>2010-11-13T13:57:13.000Z</time>
      </trkpt>
      <trkpt lat="45.04969" lon="5.36486">
        <ele>373.60000610352</ele>
        <time>2010-11-13T13:57:25.000Z</time>
      </trkpt>
      <trkpt lat="45.04959" lon="5.3651">
        <ele>376.39999389648</ele>
        <time>2010-11-13T13:57:38.000Z</time>
      </trkpt>
      <trkpt lat="45.04958" lon="5.3652">
        <ele>378.79998779297</ele>
        <time>2010-11-13T13:57:42.000Z</time>
      </trkpt>
      <trkpt lat="45.04956" lon="5.36534">
        <ele>381.39999389648</ele>
        <time>2010-11-13T13:57:48.000Z</time>
      </trkpt>
      <trkpt lat="45.04953" lon="5.36544">
        <ele>383.20001220703</ele>
        <time>2010-11-13T13:57:53.000Z</time>
      </trkpt>
      <trkpt lat="45.0494" lon="5.36559">
        <ele>383.20001220703</ele>
        <time>2010-11-13T13:58:03.000Z</time>
      </trkpt>
      <trkpt lat="45.04917" lon="5.36571">
        <ele>380.20001220703</ele>
        <time>2010-11-13T13:58:15.000Z</time>
      </trkpt>
      <trkpt lat="45.04903" lon="5.36586">
        <ele>382.60000610352</ele>
        <time>2010-11-13T13:58:27.000Z</time>
      </trkpt>
      <trkpt lat="45.04893" lon="5.36602">
        <ele>387.20001220703</ele>
        <time>2010-11-13T13:58:42.000Z</time>
      </trkpt>
      <trkpt lat="45.0487" lon="5.3663">
        <ele>394</ele>
        <time>2010-11-13T13:59:00.000Z</time>
      </trkpt>
      <trkpt lat="45.04849" lon="5.36647">
        <ele>395.79998779297</ele>
        <time>2010-11-13T13:59:17.000Z</time>
      </trkpt>
      <trkpt lat="45.04841" lon="5.36649">
        <ele>395</ele>
        <time>2010-11-13T13:59:23.000Z</time>
      </trkpt>
      <trkpt lat="45.04842" lon="5.36661">
        <ele>398.79998779297</ele>
        <time>2010-11-13T13:59:31.000Z</time>
      </trkpt>
      <trkpt lat="45.04839" lon="5.36667">
        <ele>400.20001220703</ele>
        <time>2010-11-13T13:59:37.000Z</time>
      </trkpt>
      <trkpt lat="45.04839" lon="5.36674">
        <ele>400.79998779297</ele>
        <time>2010-11-13T13:59:42.000Z</time>
      </trkpt>
      <trkpt lat="45.04849" lon="5.36692">
        <ele>405.39999389648</ele>
        <time>2010-11-13T13:59:59.000Z</time>
      </trkpt>
      <trkpt lat="45.04864" lon="5.36695">
        <ele>409.79998779297</ele>
        <time>2010-11-13T14:00:10.000Z</time>
      </trkpt>
      <trkpt lat="45.04887" lon="5.36692">
        <ele>415.60000610352</ele>
        <time>2010-11-13T14:00:21.000Z</time>
      </trkpt>
      <trkpt lat="45.04908" lon="5.36679">
        <ele>417.79998779297</ele>
        <time>2010-11-13T14:00:31.000Z</time>
      </trkpt>
      <trkpt lat="45.04939" lon="5.36673">
        <ele>422.79998779297</ele>
        <time>2010-11-13T14:00:46.000Z</time>
      </trkpt>
      <trkpt lat="45.04982" lon="5.36675">
        <ele>433.79998779297</ele>
        <time>2010-11-13T14:01:05.000Z</time>
      </trkpt>
      <trkpt lat="45.05012" lon="5.36671">
        <ele>440.39999389648</ele>
        <time>2010-11-13T14:01:20.000Z</time>
      </trkpt>
      <trkpt lat="45.05029" lon="5.36638">
        <ele>433.39999389648</ele>
        <time>2010-11-13T14:01:35.000Z</time>
      </trkpt>
      <trkpt lat="45.05034" lon="5.36625">
        <ele>429.79998779297</ele>
        <time>2010-11-13T14:01:43.000Z</time>
      </trkpt>
      <trkpt lat="45.05048" lon="5.36625">
        <ele>434</ele>
        <time>2010-11-13T14:01:51.000Z</time>
      </trkpt>
      <trkpt lat="45.05075" lon="5.36621">
        <ele>440.20001220703</ele>
        <time>2010-11-13T14:02:06.000Z</time>
      </trkpt>
      <trkpt lat="45.05079" lon="5.36618">
        <ele>440.20001220703</ele>
        <time>2010-11-13T14:02:09.000Z</time>
      </trkpt>
      <trkpt lat="45.0509" lon="5.3662">
        <ele>443.79998779297</ele>
        <time>2010-11-13T14:02:16.000Z</time>
      </trkpt>
      <trkpt lat="45.05096" lon="5.36619">
        <ele>444.79998779297</ele>
        <time>2010-11-13T14:02:20.000Z</time>
      </trkpt>
      <trkpt lat="45.05102" lon="5.36617">
        <ele>445</ele>
        <time>2010-11-13T14:02:23.000Z</time>
      </trkpt>
      <trkpt lat="45.05113" lon="5.36613">
        <ele>446</ele>
        <time>2010-11-13T14:02:30.000Z</time>
      </trkpt>
      <trkpt lat="45.05121" lon="5.36613">
        <ele>447.79998779297</ele>
        <time>2010-11-13T14:02:34.000Z</time>
      </trkpt>
      <trkpt lat="45.05143" lon="5.36613">
        <ele>452.60000610352</ele>
        <time>2010-11-13T14:02:45.000Z</time>
      </trkpt>
      <trkpt lat="45.05161" lon="5.36606">
        <ele>453.39999389648</ele>
        <time>2010-11-13T14:02:52.000Z</time>
      </trkpt>
      <trkpt lat="45.05166" lon="5.36605">
        <ele>454.39999389648</ele>
        <time>2010-11-13T14:02:54.000Z</time>
      </trkpt>
      <trkpt lat="45.05172" lon="5.36605">
        <ele>457.20001220703</ele>
        <time>2010-11-13T14:02:57.000Z</time>
      </trkpt>
      <trkpt lat="45.05179" lon="5.36598">
        <ele>457.79998779297</ele>
        <time>2010-11-13T14:03:02.000Z</time>
      </trkpt>
      <trkpt lat="45.0519" lon="5.36578">
        <ele>457.39999389648</ele>
        <time>2010-11-13T14:03:14.000Z</time>
      </trkpt>
      <trkpt lat="45.05202" lon="5.36549">
        <ele>456.39999389648</ele>
        <time>2010-11-13T14:03:26.000Z</time>
      </trkpt>
      <trkpt lat="45.05211" lon="5.36543">
        <ele>460</ele>
        <time>2010-11-13T14:03:32.000Z</time>
      </trkpt>
      <trkpt lat="45.05217" lon="5.36539">
        <ele>462</ele>
        <time>2010-11-13T14:03:36.000Z</time>
      </trkpt>
      <trkpt lat="45.05222" lon="5.36531">
        <ele>463</ele>
        <time>2010-11-13T14:03:40.000Z</time>
      </trkpt>
      <trkpt lat="45.05237" lon="5.36502">
        <ele>465</ele>
        <time>2010-11-13T14:03:52.000Z</time>
      </trkpt>
      <trkpt lat="45.05261" lon="5.36468">
        <ele>470.60000610352</ele>
        <time>2010-11-13T14:04:09.000Z</time>
      </trkpt>
      <trkpt lat="45.05263" lon="5.36465">
        <ele>471</ele>
        <time>2010-11-13T14:04:11.000Z</time>
      </trkpt>
      <trkpt lat="45.05268" lon="5.36456">
        <ele>471.60000610352</ele>
        <time>2010-11-13T14:04:19.000Z</time>
      </trkpt>
      <trkpt lat="45.05261" lon="5.36469">
        <ele>470.79998779297</ele>
        <time>2010-11-13T14:04:33.000Z</time>
      </trkpt>
      <trkpt lat="45.05251" lon="5.36499">
        <ele>472.20001220703</ele>
        <time>2010-11-13T14:04:46.000Z</time>
      </trkpt>
      <trkpt lat="45.05241" lon="5.36531">
        <ele>473.60000610352</ele>
        <time>2010-11-13T14:05:00.000Z</time>
      </trkpt>
      <trkpt lat="45.0523" lon="5.36568">
        <ele>476.60000610352</ele>
        <time>2010-11-13T14:05:16.000Z</time>
      </trkpt>
      <trkpt lat="45.0523" lon="5.36596">
        <ele>482.60000610352</ele>
        <time>2010-11-13T14:05:25.000Z</time>
      </trkpt>
      <trkpt lat="45.05227" lon="5.36626">
        <ele>487.60000610352</ele>
        <time>2010-11-13T14:05:42.000Z</time>
      </trkpt>
      <trkpt lat="45.05225" lon="5.36633">
        <ele>488.20001220703</ele>
        <time>2010-11-13T14:05:50.000Z</time>
      </trkpt>
      <trkpt lat="45.05203" lon="5.36653">
        <ele>485.60000610352</ele>
        <time>2010-11-13T14:06:06.000Z</time>
      </trkpt>
      <trkpt lat="45.052" lon="5.36655">
        <ele>485</ele>
        <time>2010-11-13T14:06:08.000Z</time>
      </trkpt>
      <trkpt lat="45.05193" lon="5.3666">
        <ele>484.39999389648</ele>
        <time>2010-11-13T14:06:12.000Z</time>
      </trkpt>
      <trkpt lat="45.05174" lon="5.36673">
        <ele>483.20001220703</ele>
        <time>2010-11-13T14:06:24.000Z</time>
      </trkpt>
      <trkpt lat="45.05172" lon="5.36674">
        <ele>483</ele>
        <time>2010-11-13T14:06:25.000Z</time>
      </trkpt>
      <trkpt lat="45.05156" lon="5.36682">
        <ele>482.20001220703</ele>
        <time>2010-11-13T14:06:36.000Z</time>
      </trkpt>
      <trkpt lat="45.05143" lon="5.36696">
        <ele>484.79998779297</ele>
        <time>2010-11-13T14:06:43.000Z</time>
      </trkpt>
      <trkpt lat="45.05123" lon="5.36717">
        <ele>488.60000610352</ele>
        <time>2010-11-13T14:06:56.000Z</time>
      </trkpt>
      <trkpt lat="45.05113" lon="5.36741">
        <ele>495.20001220703</ele>
        <time>2010-11-13T14:07:07.000Z</time>
      </trkpt>
      <trkpt lat="45.05109" lon="5.36747">
        <ele>496.79998779297</ele>
        <time>2010-11-13T14:07:11.000Z</time>
      </trkpt>
      <trkpt lat="45.05098" lon="5.36758">
        <ele>497.39999389648</ele>
        <time>2010-11-13T14:07:18.000Z</time>
      </trkpt>
      <trkpt lat="45.05076" lon="5.36786">
        <ele>498.60000610352</ele>
        <time>2010-11-13T14:07:33.000Z</time>
      </trkpt>
      <trkpt lat="45.05067" lon="5.36797">
        <ele>498</ele>
        <time>2010-11-13T14:07:38.000Z</time>
      </trkpt>
      <trkpt lat="45.05087" lon="5.36803">
        <ele>505.60000610352</ele>
        <time>2010-11-13T14:07:55.000Z</time>
      </trkpt>
      <trkpt lat="45.05115" lon="5.36798">
        <ele>509.39999389648</ele>
        <time>2010-11-13T14:08:10.000Z</time>
      </trkpt>
      <trkpt lat="45.05157" lon="5.36794">
        <ele>516.20001220703</ele>
        <time>2010-11-13T14:08:31.000Z</time>
      </trkpt>
      <trkpt lat="45.05203" lon="5.36792">
        <ele>520.59997558594</ele>
        <time>2010-11-13T14:08:53.000Z</time>
      </trkpt>
      <trkpt lat="45.05207" lon="5.36791">
        <ele>520.79998779297</ele>
        <time>2010-11-13T14:08:57.000Z</time>
      </trkpt>
      <trkpt lat="45.05208" lon="5.36791">
        <ele>520.79998779297</ele>
        <time>2010-11-13T14:09:01.000Z</time>
      </trkpt>
      <trkpt lat="45.05245" lon="5.3679">
        <ele>523.59997558594</ele>
        <time>2010-11-13T14:09:19.000Z</time>
      </trkpt>
      <trkpt lat="45.05282" lon="5.36783">
        <ele>526</ele>
        <time>2010-11-13T14:09:35.000Z</time>
      </trkpt>
      <trkpt lat="45.05297" lon="5.36786">
        <ele>528</ele>
        <time>2010-11-13T14:09:46.000Z</time>
      </trkpt>
      <trkpt lat="45.05323" lon="5.36787">
        <ele>530.59997558594</ele>
        <time>2010-11-13T14:10:00.000Z</time>
      </trkpt>
      <trkpt lat="45.05323" lon="5.36787">
        <ele>530.59997558594</ele>
        <time>2010-11-13T14:10:01.000Z</time>
      </trkpt>
      <trkpt lat="45.05313" lon="5.36818">
        <ele>532.59997558594</ele>
        <time>2010-11-13T14:10:16.000Z</time>
      </trkpt>
      <trkpt lat="45.05292" lon="5.36846">
        <ele>535</ele>
        <time>2010-11-13T14:10:30.000Z</time>
      </trkpt>
      <trkpt lat="45.05269" lon="5.36893">
        <ele>540.40002441406</ele>
        <time>2010-11-13T14:10:47.000Z</time>
      </trkpt>
      <trkpt lat="45.05257" lon="5.36956">
        <ele>547.20001220703</ele>
        <time>2010-11-13T14:11:07.000Z</time>
      </trkpt>
      <trkpt lat="45.05264" lon="5.3702">
        <ele>554.40002441406</ele>
        <time>2010-11-13T14:11:27.000Z</time>
      </trkpt>
      <trkpt lat="45.0527" lon="5.37086">
        <ele>561.59997558594</ele>
        <time>2010-11-13T14:11:48.000Z</time>
      </trkpt>
      <trkpt lat="45.05269" lon="5.37101">
        <ele>562.79998779297</ele>
        <time>2010-11-13T14:11:53.000Z</time>
      </trkpt>
      <trkpt lat="45.05269" lon="5.3711">
        <ele>563.40002441406</ele>
        <time>2010-11-13T14:12:02.000Z</time>
      </trkpt>
      <trkpt lat="45.05277" lon="5.37118">
        <ele>566</ele>
        <time>2010-11-13T14:12:10.000Z</time>
      </trkpt>
      <trkpt lat="45.05282" lon="5.37131">
        <ele>568.20001220703</ele>
        <time>2010-11-13T14:12:19.000Z</time>
      </trkpt>
      <trkpt lat="45.05274" lon="5.37166">
        <ele>569.20001220703</ele>
        <time>2010-11-13T14:12:33.000Z</time>
      </trkpt>
      <trkpt lat="45.05254" lon="5.37209">
        <ele>574.20001220703</ele>
        <time>2010-11-13T14:12:51.000Z</time>
      </trkpt>
      <trkpt lat="45.05233" lon="5.37251">
        <ele>577.40002441406</ele>
        <time>2010-11-13T14:13:09.000Z</time>
      </trkpt>
      <trkpt lat="45.0522" lon="5.37303">
        <ele>582.59997558594</ele>
        <time>2010-11-13T14:13:26.000Z</time>
      </trkpt>
      <trkpt lat="45.05209" lon="5.37358">
        <ele>589.40002441406</ele>
        <time>2010-11-13T14:13:44.000Z</time>
      </trkpt>
      <trkpt lat="45.05194" lon="5.37397">
        <ele>592.40002441406</ele>
        <time>2010-11-13T14:13:59.000Z</time>
      </trkpt>
      <trkpt lat="45.05183" lon="5.37419">
        <ele>593.59997558594</ele>
        <time>2010-11-13T14:14:09.000Z</time>
      </trkpt>
      <trkpt lat="45.0516" lon="5.37439">
        <ele>594.40002441406</ele>
        <time>2010-11-13T14:14:24.000Z</time>
      </trkpt>
      <trkpt lat="45.05138" lon="5.37457">
        <ele>599</ele>
        <time>2010-11-13T14:14:39.000Z</time>
      </trkpt>
      <trkpt lat="45.05123" lon="5.37464">
        <ele>600.20001220703</ele>
        <time>2010-11-13T14:14:48.000Z</time>
      </trkpt>
      <trkpt lat="45.05116" lon="5.37472">
        <ele>602.40002441406</ele>
        <time>2010-11-13T14:15:00.000Z</time>
      </trkpt>
      <trkpt lat="45.05117" lon="5.37477">
        <ele>604</ele>
        <time>2010-11-13T14:15:08.000Z</time>
      </trkpt>
      <trkpt lat="45.05108" lon="5.37477">
        <ele>603.20001220703</ele>
        <time>2010-11-13T14:15:14.000Z</time>
      </trkpt>
      <trkpt lat="45.05089" lon="5.37469">
        <ele>599.40002441406</ele>
        <time>2010-11-13T14:15:25.000Z</time>
      </trkpt>
      <trkpt lat="45.05064" lon="5.37456">
        <ele>597.20001220703</ele>
        <time>2010-11-13T14:15:35.000Z</time>
      </trkpt>
      <trkpt lat="45.05032" lon="5.37441">
        <ele>596.20001220703</ele>
        <time>2010-11-13T14:15:46.000Z</time>
      </trkpt>
      <trkpt lat="45.04996" lon="5.37463">
        <ele>605</ele>
        <time>2010-11-13T14:16:03.000Z</time>
      </trkpt>
      <trkpt lat="45.04973" lon="5.37492">
        <ele>609.20001220703</ele>
        <time>2010-11-13T14:16:20.000Z</time>
      </trkpt>
      <trkpt lat="45.04958" lon="5.37506">
        <ele>611</ele>
        <time>2010-11-13T14:16:33.000Z</time>
      </trkpt>
      <trkpt lat="45.04939" lon="5.37519">
        <ele>612.59997558594</ele>
        <time>2010-11-13T14:16:47.000Z</time>
      </trkpt>
      <trkpt lat="45.04922" lon="5.37533">
        <ele>614.59997558594</ele>
        <time>2010-11-13T14:17:02.000Z</time>
      </trkpt>
      <trkpt lat="45.04914" lon="5.37541">
        <ele>615.79998779297</ele>
        <time>2010-11-13T14:17:42.000Z</time>
      </trkpt>
      <trkpt lat="45.04909" lon="5.37553">
        <ele>618.20001220703</ele>
        <time>2010-11-13T14:18:03.000Z</time>
      </trkpt>
      <trkpt lat="45.04902" lon="5.37565">
        <ele>619.40002441406</ele>
        <time>2010-11-13T14:18:10.000Z</time>
      </trkpt>
      <trkpt lat="45.04887" lon="5.37595">
        <ele>622.40002441406</ele>
        <time>2010-11-13T14:18:24.000Z</time>
      </trkpt>
      <trkpt lat="45.04886" lon="5.376">
        <ele>622.59997558594</ele>
        <time>2010-11-13T14:18:26.000Z</time>
      </trkpt>
      <trkpt lat="45.04873" lon="5.37618">
        <ele>621</ele>
        <time>2010-11-13T14:18:34.000Z</time>
      </trkpt>
      <trkpt lat="45.0487" lon="5.37625">
        <ele>620.79998779297</ele>
        <time>2010-11-13T14:18:37.000Z</time>
      </trkpt>
      <trkpt lat="45.04867" lon="5.3764">
        <ele>622.59997558594</ele>
        <time>2010-11-13T14:18:42.000Z</time>
      </trkpt>
      <trkpt lat="45.04856" lon="5.37673">
        <ele>623.59997558594</ele>
        <time>2010-11-13T14:18:57.000Z</time>
      </trkpt>
      <trkpt lat="45.04855" lon="5.37679">
        <ele>624</ele>
        <time>2010-11-13T14:18:59.000Z</time>
      </trkpt>
      <trkpt lat="45.04855" lon="5.37695">
        <ele>626.20001220703</ele>
        <time>2010-11-13T14:19:04.000Z</time>
      </trkpt>
      <trkpt lat="45.04857" lon="5.3774">
        <ele>633.59997558594</ele>
        <time>2010-11-13T14:19:21.000Z</time>
      </trkpt>
      <trkpt lat="45.04856" lon="5.37745">
        <ele>634.40002441406</ele>
        <time>2010-11-13T14:19:23.000Z</time>
      </trkpt>
      <trkpt lat="45.04851" lon="5.37776">
        <ele>639.40002441406</ele>
        <time>2010-11-13T14:19:37.000Z</time>
      </trkpt>
      <trkpt lat="45.04846" lon="5.37805">
        <ele>645</ele>
        <time>2010-11-13T14:19:51.000Z</time>
      </trkpt>
      <trkpt lat="45.0484" lon="5.3782">
        <ele>646.40002441406</ele>
        <time>2010-11-13T14:19:59.000Z</time>
      </trkpt>
      <trkpt lat="45.04838" lon="5.37824">
        <ele>646.40002441406</ele>
        <time>2010-11-13T14:20:02.000Z</time>
      </trkpt>
      <trkpt lat="45.04829" lon="5.37852">
        <ele>652.79998779297</ele>
        <time>2010-11-13T14:20:17.000Z</time>
      </trkpt>
      <trkpt lat="45.04823" lon="5.37871">
        <ele>658.20001220703</ele>
        <time>2010-11-13T14:20:33.000Z</time>
      </trkpt>
      <trkpt lat="45.0482" lon="5.37877">
        <ele>659.59997558594</ele>
        <time>2010-11-13T14:20:36.000Z</time>
      </trkpt>
      <trkpt lat="45.0481" lon="5.379">
        <ele>665.20001220703</ele>
        <time>2010-11-13T14:20:50.000Z</time>
      </trkpt>
      <trkpt lat="45.04806" lon="5.37907">
        <ele>666.59997558594</ele>
        <time>2010-11-13T14:20:55.000Z</time>
      </trkpt>
      <trkpt lat="45.04803" lon="5.37913">
        <ele>667.59997558594</ele>
        <time>2010-11-13T14:20:59.000Z</time>
      </trkpt>
      <trkpt lat="45.048" lon="5.37921">
        <ele>669.79998779297</ele>
        <time>2010-11-13T14:21:04.000Z</time>
      </trkpt>
      <trkpt lat="45.04785" lon="5.37955">
        <ele>676.59997558594</ele>
        <time>2010-11-13T14:21:25.000Z</time>
      </trkpt>
      <trkpt lat="45.04771" lon="5.37985">
        <ele>681.79998779297</ele>
        <time>2010-11-13T14:21:43.000Z</time>
      </trkpt>
      <trkpt lat="45.0476" lon="5.38018">
        <ele>689.59997558594</ele>
        <time>2010-11-13T14:22:02.000Z</time>
      </trkpt>
      <trkpt lat="45.04758" lon="5.38023">
        <ele>691</ele>
        <time>2010-11-13T14:22:05.000Z</time>
      </trkpt>
      <trkpt lat="45.04749" lon="5.38042">
        <ele>695</ele>
        <time>2010-11-13T14:22:18.000Z</time>
      </trkpt>
      <trkpt lat="45.04742" lon="5.38059">
        <ele>699.20001220703</ele>
        <time>2010-11-13T14:22:34.000Z</time>
      </trkpt>
      <trkpt lat="45.04741" lon="5.3806">
        <ele>699.59997558594</ele>
        <time>2010-11-13T14:22:35.000Z</time>
      </trkpt>
      <trkpt lat="45.04734" lon="5.38074">
        <ele>702</ele>
        <time>2010-11-13T14:22:44.000Z</time>
      </trkpt>
      <trkpt lat="45.04725" lon="5.381">
        <ele>708</ele>
        <time>2010-11-13T14:23:03.000Z</time>
      </trkpt>
      <trkpt lat="45.04717" lon="5.38122">
        <ele>712.79998779297</ele>
        <time>2010-11-13T14:23:22.000Z</time>
      </trkpt>
      <trkpt lat="45.04712" lon="5.38144">
        <ele>719.20001220703</ele>
        <time>2010-11-13T14:23:42.000Z</time>
      </trkpt>
      <trkpt lat="45.04704" lon="5.38164">
        <ele>723.59997558594</ele>
        <time>2010-11-13T14:24:00.000Z</time>
      </trkpt>
      <trkpt lat="45.04698" lon="5.38185">
        <ele>729</ele>
        <time>2010-11-13T14:24:16.000Z</time>
      </trkpt>
      <trkpt lat="45.04691" lon="5.38204">
        <ele>733.79998779297</ele>
        <time>2010-11-13T14:24:29.000Z</time>
      </trkpt>
      <trkpt lat="45.04687" lon="5.38212">
        <ele>735.20001220703</ele>
        <time>2010-11-13T14:24:34.000Z</time>
      </trkpt>
      <trkpt lat="45.0468" lon="5.38222">
        <ele>736.79998779297</ele>
        <time>2010-11-13T14:24:41.000Z</time>
      </trkpt>
      <trkpt lat="45.04676" lon="5.38236">
        <ele>741</ele>
        <time>2010-11-13T14:24:50.000Z</time>
      </trkpt>
      <trkpt lat="45.04667" lon="5.38246">
        <ele>741.40002441406</ele>
        <time>2010-11-13T14:25:01.000Z</time>
      </trkpt>
      <trkpt lat="45.04653" lon="5.38253">
        <ele>740.20001220703</ele>
        <time>2010-11-13T14:25:17.000Z</time>
      </trkpt>
      <trkpt lat="45.0465" lon="5.38255">
        <ele>740</ele>
        <time>2010-11-13T14:25:20.000Z</time>
      </trkpt>
      <trkpt lat="45.04618" lon="5.38283">
        <ele>741.40002441406</ele>
        <time>2010-11-13T14:25:42.000Z</time>
      </trkpt>
      <trkpt lat="45.04607" lon="5.38307">
        <ele>747.20001220703</ele>
        <time>2010-11-13T14:25:53.000Z</time>
      </trkpt>
      <trkpt lat="45.04596" lon="5.38322">
        <ele>748.79998779297</ele>
        <time>2010-11-13T14:26:03.000Z</time>
      </trkpt>
      <trkpt lat="45.04576" lon="5.38353">
        <ele>752.20001220703</ele>
        <time>2010-11-13T14:26:20.000Z</time>
      </trkpt>
      <trkpt lat="45.0457" lon="5.38372">
        <ele>756.79998779297</ele>
        <time>2010-11-13T14:26:31.000Z</time>
      </trkpt>
      <trkpt lat="45.04569" lon="5.38375">
        <ele>757.59997558594</ele>
        <time>2010-11-13T14:26:33.000Z</time>
      </trkpt>
      <trkpt lat="45.04567" lon="5.38382">
        <ele>759.40002441406</ele>
        <time>2010-11-13T14:26:37.000Z</time>
      </trkpt>
      <trkpt lat="45.04554" lon="5.38412">
        <ele>765.20001220703</ele>
        <time>2010-11-13T14:26:56.000Z</time>
      </trkpt>
      <trkpt lat="45.04553" lon="5.38414">
        <ele>765.40002441406</ele>
        <time>2010-11-13T14:26:57.000Z</time>
      </trkpt>
      <trkpt lat="45.04548" lon="5.38433">
        <ele>770.59997558594</ele>
        <time>2010-11-13T14:27:12.000Z</time>
      </trkpt>
      <trkpt lat="45.04545" lon="5.38438">
        <ele>770.79998779297</ele>
        <time>2010-11-13T14:27:17.000Z</time>
      </trkpt>
      <trkpt lat="45.04537" lon="5.38452">
        <ele>772.59997558594</ele>
        <time>2010-11-13T14:27:29.000Z</time>
      </trkpt>
      <trkpt lat="45.04528" lon="5.38461">
        <ele>772.59997558594</ele>
        <time>2010-11-13T14:27:35.000Z</time>
      </trkpt>
      <trkpt lat="45.04517" lon="5.38478">
        <ele>775</ele>
        <time>2010-11-13T14:27:50.000Z</time>
      </trkpt>
      <trkpt lat="45.04508" lon="5.38492">
        <ele>777.40002441406</ele>
        <time>2010-11-13T14:28:02.000Z</time>
      </trkpt>
      <trkpt lat="45.04496" lon="5.38513">
        <ele>779.40002441406</ele>
        <time>2010-11-13T14:28:19.000Z</time>
      </trkpt>
      <trkpt lat="45.04495" lon="5.38515">
        <ele>779.40002441406</ele>
        <time>2010-11-13T14:28:20.000Z</time>
      </trkpt>
      <trkpt lat="45.04493" lon="5.38519">
        <ele>779.79998779297</ele>
        <time>2010-11-13T14:28:23.000Z</time>
      </trkpt>
      <trkpt lat="45.04486" lon="5.38539">
        <ele>781.20001220703</ele>
        <time>2010-11-13T14:28:38.000Z</time>
      </trkpt>
      <trkpt lat="45.04477" lon="5.38559">
        <ele>782</ele>
        <time>2010-11-13T14:28:54.000Z</time>
      </trkpt>
      <trkpt lat="45.0448" lon="5.38565">
        <ele>785.20001220703</ele>
        <time>2010-11-13T14:29:16.000Z</time>
      </trkpt>
      <trkpt lat="45.04481" lon="5.38574">
        <ele>788</ele>
        <time>2010-11-13T14:29:55.000Z</time>
      </trkpt>
      <trkpt lat="45.04485" lon="5.38589">
        <ele>794.59997558594</ele>
        <time>2010-11-13T14:30:15.000Z</time>
      </trkpt>
      <trkpt lat="45.04489" lon="5.38602">
        <ele>800.59997558594</ele>
        <time>2010-11-13T14:30:30.000Z</time>
      </trkpt>
      <trkpt lat="45.04492" lon="5.38611">
        <ele>804.20001220703</ele>
        <time>2010-11-13T14:30:43.000Z</time>
      </trkpt>
      <trkpt lat="45.04492" lon="5.38627">
        <ele>808.59997558594</ele>
        <time>2010-11-13T14:30:59.000Z</time>
      </trkpt>
      <trkpt lat="45.04495" lon="5.3864">
        <ele>813.40002441406</ele>
        <time>2010-11-13T14:31:15.000Z</time>
      </trkpt>
      <trkpt lat="45.04497" lon="5.38654">
        <ele>818</ele>
        <time>2010-11-13T14:31:32.000Z</time>
      </trkpt>
      <trkpt lat="45.04499" lon="5.38667">
        <ele>822.40002441406</ele>
        <time>2010-11-13T14:31:46.000Z</time>
      </trkpt>
      <trkpt lat="45.04499" lon="5.38682">
        <ele>826.40002441406</ele>
        <time>2010-11-13T14:32:01.000Z</time>
      </trkpt>
      <trkpt lat="45.045" lon="5.38693">
        <ele>829.59997558594</ele>
        <time>2010-11-13T14:32:14.000Z</time>
      </trkpt>
      <trkpt lat="45.04502" lon="5.38704">
        <ele>833.20001220703</ele>
        <time>2010-11-13T14:32:27.000Z</time>
      </trkpt>
      <trkpt lat="45.04504" lon="5.38717">
        <ele>838</ele>
        <time>2010-11-13T14:32:44.000Z</time>
      </trkpt>
      <trkpt lat="45.04506" lon="5.38731">
        <ele>842.59997558594</ele>
        <time>2010-11-13T14:32:58.000Z</time>
      </trkpt>
      <trkpt lat="45.04508" lon="5.38743">
        <ele>846.79998779297</ele>
        <time>2010-11-13T14:33:13.000Z</time>
      </trkpt>
      <trkpt lat="45.04512" lon="5.38751">
        <ele>851.20001220703</ele>
        <time>2010-11-13T14:33:25.000Z</time>
      </trkpt>
      <trkpt lat="45.0452" lon="5.38747">
        <ele>854.59997558594</ele>
        <time>2010-11-13T14:33:42.000Z</time>
      </trkpt>
      <trkpt lat="45.04538" lon="5.38727">
        <ele>859.79998779297</ele>
        <time>2010-11-13T14:34:04.000Z</time>
      </trkpt>
      <trkpt lat="45.04549" lon="5.38717">
        <ele>864</ele>
        <time>2010-11-13T14:34:21.000Z</time>
      </trkpt>
      <trkpt lat="45.04561" lon="5.38711">
        <ele>869.20001220703</ele>
        <time>2010-11-13T14:34:37.000Z</time>
      </trkpt>
      <trkpt lat="45.04564" lon="5.38708">
        <ele>870</ele>
        <time>2010-11-13T14:34:41.000Z</time>
      </trkpt>
      <trkpt lat="45.04575" lon="5.38692">
        <ele>872.20001220703</ele>
        <time>2010-11-13T14:34:55.000Z</time>
      </trkpt>
      <trkpt lat="45.04583" lon="5.38677">
        <ele>873.40002441406</ele>
        <time>2010-11-13T14:35:11.000Z</time>
      </trkpt>
      <trkpt lat="45.04595" lon="5.38667">
        <ele>875.59997558594</ele>
        <time>2010-11-13T14:35:29.000Z</time>
      </trkpt>
      <trkpt lat="45.04602" lon="5.38664">
        <ele>877.59997558594</ele>
        <time>2010-11-13T14:35:42.000Z</time>
      </trkpt>
      <trkpt lat="45.04608" lon="5.38678">
        <ele>883.79998779297</ele>
        <time>2010-11-13T14:36:00.000Z</time>
      </trkpt>
      <trkpt lat="45.04612" lon="5.38695">
        <ele>890</ele>
        <time>2010-11-13T14:36:16.000Z</time>
      </trkpt>
      <trkpt lat="45.04612" lon="5.38716">
        <ele>895.59997558594</ele>
        <time>2010-11-13T14:36:37.000Z</time>
      </trkpt>
      <trkpt lat="45.04614" lon="5.38729">
        <ele>900.40002441406</ele>
        <time>2010-11-13T14:36:58.000Z</time>
      </trkpt>
      <trkpt lat="45.04614" lon="5.38739">
        <ele>903</ele>
        <time>2010-11-13T14:37:14.000Z</time>
      </trkpt>
      <trkpt lat="45.04613" lon="5.38758">
        <ele>907.20001220703</ele>
        <time>2010-11-13T14:37:35.000Z</time>
      </trkpt>
      <trkpt lat="45.04615" lon="5.3876">
        <ele>908.40002441406</ele>
        <time>2010-11-13T14:37:51.000Z</time>
      </trkpt>
      <trkpt lat="45.0462" lon="5.38769">
        <ele>911.79998779297</ele>
        <time>2010-11-13T14:38:08.000Z</time>
      </trkpt>
      <trkpt lat="45.0462" lon="5.38777">
        <ele>913.20001220703</ele>
        <time>2010-11-13T14:38:18.000Z</time>
      </trkpt>
      <trkpt lat="45.04617" lon="5.38801">
        <ele>915.40002441406</ele>
        <time>2010-11-13T14:38:39.000Z</time>
      </trkpt>
      <trkpt lat="45.04618" lon="5.38812">
        <ele>917.40002441406</ele>
        <time>2010-11-13T14:38:54.000Z</time>
      </trkpt>
      <trkpt lat="45.04624" lon="5.38811">
        <ele>919.79998779297</ele>
        <time>2010-11-13T14:39:12.000Z</time>
      </trkpt>
      <trkpt lat="45.04629" lon="5.38806">
        <ele>921.20001220703</ele>
        <time>2010-11-13T14:39:27.000Z</time>
      </trkpt>
      <trkpt lat="45.04633" lon="5.38802">
        <ele>922.20001220703</ele>
        <time>2010-11-13T14:39:47.000Z</time>
      </trkpt>
      <trkpt lat="45.04634" lon="5.38802">
        <ele>922.59997558594</ele>
        <time>2010-11-13T14:40:03.000Z</time>
      </trkpt>
      <trkpt lat="45.04635" lon="5.38809">
        <ele>924</ele>
        <time>2010-11-13T14:40:13.000Z</time>
      </trkpt>
      <trkpt lat="45.04631" lon="5.38829">
        <ele>925.20001220703</ele>
        <time>2010-11-13T14:40:33.000Z</time>
      </trkpt>
      <trkpt lat="45.04629" lon="5.38839">
        <ele>924.79998779297</ele>
        <time>2010-11-13T14:40:50.000Z</time>
      </trkpt>
      <trkpt lat="45.04631" lon="5.38854">
        <ele>925.20001220703</ele>
        <time>2010-11-13T14:41:07.000Z</time>
      </trkpt>
      <trkpt lat="45.04632" lon="5.38868">
        <ele>925</ele>
        <time>2010-11-13T14:41:25.000Z</time>
      </trkpt>
      <trkpt lat="45.04634" lon="5.38882">
        <ele>924.59997558594</ele>
        <time>2010-11-13T14:41:44.000Z</time>
      </trkpt>
      <trkpt lat="45.0463" lon="5.38895">
        <ele>924.59997558594</ele>
        <time>2010-11-13T14:41:59.000Z</time>
      </trkpt>
      <trkpt lat="45.04625" lon="5.38913">
        <ele>912</ele>
        <time>2010-11-13T14:42:18.000Z</time>
      </trkpt>
      <trkpt lat="45.04624" lon="5.38915">
        <ele>911.59997558594</ele>
        <time>2010-11-13T14:42:20.000Z</time>
      </trkpt>
      <trkpt lat="45.04624" lon="5.38922">
        <ele>911</ele>
        <time>2010-11-13T14:42:35.000Z</time>
      </trkpt>
      <trkpt lat="45.04631" lon="5.38922">
        <ele>911.20001220703</ele>
        <time>2010-11-13T14:42:56.000Z</time>
      </trkpt>
      <trkpt lat="45.04633" lon="5.38931">
        <ele>910</ele>
        <time>2010-11-13T14:43:14.000Z</time>
      </trkpt>
      <trkpt lat="45.04635" lon="5.38937">
        <ele>909.20001220703</ele>
        <time>2010-11-13T14:43:31.000Z</time>
      </trkpt>
      <trkpt lat="45.0464" lon="5.38932">
        <ele>909.59997558594</ele>
        <time>2010-11-13T14:43:48.000Z</time>
      </trkpt>
      <trkpt lat="45.04648" lon="5.38931">
        <ele>909.20001220703</ele>
        <time>2010-11-13T14:44:06.000Z</time>
      </trkpt>
      <trkpt lat="45.0465" lon="5.38928">
        <ele>909.79998779297</ele>
        <time>2010-11-13T14:44:08.000Z</time>
      </trkpt>
      <trkpt lat="45.04651" lon="5.3893">
        <ele>909.20001220703</ele>
        <time>2010-11-13T14:44:16.000Z</time>
      </trkpt>
      <trkpt lat="45.04652" lon="5.38939">
        <ele>907.20001220703</ele>
        <time>2010-11-13T14:44:30.000Z</time>
      </trkpt>
      <trkpt lat="45.04664" lon="5.38931">
        <ele>908.40002441406</ele>
        <time>2010-11-13T14:44:45.000Z</time>
      </trkpt>
      <trkpt lat="45.04673" lon="5.38924">
        <ele>909.79998779297</ele>
        <time>2010-11-13T14:45:06.000Z</time>
      </trkpt>
      <trkpt lat="45.04674" lon="5.38932">
        <ele>907.40002441406</ele>
        <time>2010-11-13T14:45:20.000Z</time>
      </trkpt>
      <trkpt lat="45.04668" lon="5.3894">
        <ele>905.40002441406</ele>
        <time>2010-11-13T14:45:37.000Z</time>
      </trkpt>
      <trkpt lat="45.04669" lon="5.38944">
        <ele>903.59997558594</ele>
        <time>2010-11-13T14:45:52.000Z</time>
      </trkpt>
      <trkpt lat="45.04677" lon="5.38944">
        <ele>903.20001220703</ele>
        <time>2010-11-13T14:46:04.000Z</time>
      </trkpt>
      <trkpt lat="45.04669" lon="5.38959">
        <ele>899.20001220703</ele>
        <time>2010-11-13T14:46:17.000Z</time>
      </trkpt>
      <trkpt lat="45.0466" lon="5.38972">
        <ele>897.20001220703</ele>
        <time>2010-11-13T14:46:35.000Z</time>
      </trkpt>
      <trkpt lat="45.04653" lon="5.38976">
        <ele>898.40002441406</ele>
        <time>2010-11-13T14:46:45.000Z</time>
      </trkpt>
      <trkpt lat="45.04643" lon="5.38976">
        <ele>901.79998779297</ele>
        <time>2010-11-13T14:47:00.000Z</time>
      </trkpt>
      <trkpt lat="45.04639" lon="5.38981">
        <ele>902.20001220703</ele>
        <time>2010-11-13T14:47:18.000Z</time>
      </trkpt>
      <trkpt lat="45.04632" lon="5.38989">
        <ele>904</ele>
        <time>2010-11-13T14:47:35.000Z</time>
      </trkpt>
      <trkpt lat="45.0463" lon="5.39001">
        <ele>904.20001220703</ele>
        <time>2010-11-13T14:47:53.000Z</time>
      </trkpt>
      <trkpt lat="45.04622" lon="5.39004">
        <ele>908</ele>
        <time>2010-11-13T14:48:12.000Z</time>
      </trkpt>
      <trkpt lat="45.04608" lon="5.39014">
        <ele>917</ele>
        <time>2010-11-13T14:48:31.000Z</time>
      </trkpt>
      <trkpt lat="45.04605" lon="5.39038">
        <ele>922.40002441406</ele>
        <time>2010-11-13T14:48:54.000Z</time>
      </trkpt>
      <trkpt lat="45.04605" lon="5.39039">
        <ele>922.20001220703</ele>
        <time>2010-11-13T14:48:57.000Z</time>
      </trkpt>
      <trkpt lat="45.0461" lon="5.39029">
        <ele>917.59997558594</ele>
        <time>2010-11-13T14:49:08.000Z</time>
      </trkpt>
      <trkpt lat="45.04615" lon="5.39029">
        <ele>914.20001220703</ele>
        <time>2010-11-13T14:49:13.000Z</time>
      </trkpt>
      <trkpt lat="45.04613" lon="5.39034">
        <ele>916.20001220703</ele>
        <time>2010-11-13T14:49:20.000Z</time>
      </trkpt>
      <trkpt lat="45.04616" lon="5.3904">
        <ele>914.40002441406</ele>
        <time>2010-11-13T14:49:34.000Z</time>
      </trkpt>
      <trkpt lat="45.04609" lon="5.39054">
        <ele>921.79998779297</ele>
        <time>2010-11-13T14:49:55.000Z</time>
      </trkpt>
      <trkpt lat="45.04609" lon="5.39055">
        <ele>921.40002441406</ele>
        <time>2010-11-13T14:49:58.000Z</time>
      </trkpt>
      <trkpt lat="45.04619" lon="5.39054">
        <ele>912.79998779297</ele>
        <time>2010-11-13T14:50:12.000Z</time>
      </trkpt>
      <trkpt lat="45.04617" lon="5.39055">
        <ele>915</ele>
        <time>2010-11-13T14:50:17.000Z</time>
      </trkpt>
      <trkpt lat="45.0461" lon="5.39061">
        <ele>921</ele>
        <time>2010-11-13T14:50:26.000Z</time>
      </trkpt>
      <trkpt lat="45.04614" lon="5.39068">
        <ele>918.59997558594</ele>
        <time>2010-11-13T14:50:40.000Z</time>
      </trkpt>
      <trkpt lat="45.0461" lon="5.39072">
        <ele>923</ele>
        <time>2010-11-13T14:50:52.000Z</time>
      </trkpt>
      <trkpt lat="45.04607" lon="5.39081">
        <ele>927.20001220703</ele>
        <time>2010-11-13T14:51:08.000Z</time>
      </trkpt>
      <trkpt lat="45.04603" lon="5.39091">
        <ele>936</ele>
        <time>2010-11-13T14:51:24.000Z</time>
      </trkpt>
      <trkpt lat="45.04599" lon="5.39101">
        <ele>945.20001220703</ele>
        <time>2010-11-13T14:51:38.000Z</time>
      </trkpt>
      <trkpt lat="45.0459" lon="5.39111">
        <ele>958.20001220703</ele>
        <time>2010-11-13T14:51:53.000Z</time>
      </trkpt>
      <trkpt lat="45.04589" lon="5.39117">
        <ele>962</ele>
        <time>2010-11-13T14:52:05.000Z</time>
      </trkpt>
      <trkpt lat="45.04593" lon="5.39116">
        <ele>957.79998779297</ele>
        <time>2010-11-13T14:52:18.000Z</time>
      </trkpt>
      <trkpt lat="45.04598" lon="5.39105">
        <ele>947.79998779297</ele>
        <time>2010-11-13T14:52:30.000Z</time>
      </trkpt>
      <trkpt lat="45.04613" lon="5.39071">
        <ele>919.59997558594</ele>
        <time>2010-11-13T14:52:44.000Z</time>
      </trkpt>
      <trkpt lat="45.04628" lon="5.39055">
        <ele>905.59997558594</ele>
        <time>2010-11-13T14:52:51.000Z</time>
      </trkpt>
      <trkpt lat="45.04636" lon="5.39047">
        <ele>899</ele>
        <time>2010-11-13T14:52:58.000Z</time>
      </trkpt>
      <trkpt lat="45.04649" lon="5.39035">
        <ele>890.20001220703</ele>
        <time>2010-11-13T14:53:10.000Z</time>
      </trkpt>
      <trkpt lat="45.04663" lon="5.39037">
        <ele>880</ele>
        <time>2010-11-13T14:53:25.000Z</time>
      </trkpt>
      <trkpt lat="45.04663" lon="5.39037">
        <ele>879.20001220703</ele>
        <time>2010-11-13T14:53:41.000Z</time>
      </trkpt>
      <trkpt lat="45.04668" lon="5.39039">
        <ele>876.40002441406</ele>
        <time>2010-11-13T14:54:03.000Z</time>
      </trkpt>
      <trkpt lat="45.04671" lon="5.39041">
        <ele>875.40002441406</ele>
        <time>2010-11-13T14:54:45.000Z</time>
      </trkpt>
      <trkpt lat="45.04669" lon="5.39044">
        <ele>875.20001220703</ele>
        <time>2010-11-13T14:55:16.000Z</time>
      </trkpt>
      <trkpt lat="45.04666" lon="5.39045">
        <ele>875.59997558594</ele>
        <time>2010-11-13T14:55:30.000Z</time>
      </trkpt>
      <trkpt lat="45.04666" lon="5.39044">
        <ele>876.20001220703</ele>
        <time>2010-11-13T14:56:16.000Z</time>
      </trkpt>
      <trkpt lat="45.04665" lon="5.39044">
        <ele>877</ele>
        <time>2010-11-13T14:57:29.000Z</time>
      </trkpt>
      <trkpt lat="45.04658" lon="5.39053">
        <ele>880.79998779297</ele>
        <time>2010-11-13T14:57:37.000Z</time>
      </trkpt>
      <trkpt lat="45.04637" lon="5.39074">
        <ele>897.40002441406</ele>
        <time>2010-11-13T14:57:51.000Z</time>
      </trkpt>
      <trkpt lat="45.04606" lon="5.39108">
        <ele>942.59997558594</ele>
        <time>2010-11-13T14:58:08.000Z</time>
      </trkpt>
      <trkpt lat="45.04601" lon="5.39112">
        <ele>949</ele>
        <time>2010-11-13T14:58:11.000Z</time>
      </trkpt>
      <trkpt lat="45.04592" lon="5.39111">
        <ele>957</ele>
        <time>2010-11-13T14:58:21.000Z</time>
      </trkpt>
      <trkpt lat="45.0459" lon="5.3911">
        <ele>957.59997558594</ele>
        <time>2010-11-13T14:58:23.000Z</time>
      </trkpt>
      <trkpt lat="45.04588" lon="5.39106">
        <ele>957</ele>
        <time>2010-11-13T14:58:26.000Z</time>
      </trkpt>
      <trkpt lat="45.04587" lon="5.39098">
        <ele>954</ele>
        <time>2010-11-13T14:58:35.000Z</time>
      </trkpt>
      <trkpt lat="45.04591" lon="5.39091">
        <ele>947</ele>
        <time>2010-11-13T14:58:42.000Z</time>
      </trkpt>
      <trkpt lat="45.04593" lon="5.39085">
        <ele>942.40002441406</ele>
        <time>2010-11-13T14:58:47.000Z</time>
      </trkpt>
      <trkpt lat="45.04596" lon="5.39079">
        <ele>937.40002441406</ele>
        <time>2010-11-13T14:58:55.000Z</time>
      </trkpt>
      <trkpt lat="45.04599" lon="5.39075">
        <ele>934</ele>
        <time>2010-11-13T14:58:59.000Z</time>
      </trkpt>
      <trkpt lat="45.04602" lon="5.39062">
        <ele>928.40002441406</ele>
        <time>2010-11-13T14:59:11.000Z</time>
      </trkpt>
      <trkpt lat="45.04603" lon="5.39059">
        <ele>927.79998779297</ele>
        <time>2010-11-13T14:59:13.000Z</time>
      </trkpt>
      <trkpt lat="45.04605" lon="5.39049">
        <ele>923.79998779297</ele>
        <time>2010-11-13T14:59:21.000Z</time>
      </trkpt>
      <trkpt lat="45.04596" lon="5.39039">
        <ele>929.40002441406</ele>
        <time>2010-11-13T14:59:31.000Z</time>
      </trkpt>
      <trkpt lat="45.04605" lon="5.39026">
        <ele>920</ele>
        <time>2010-11-13T14:59:44.000Z</time>
      </trkpt>
      <trkpt lat="45.04606" lon="5.39026">
        <ele>919.59997558594</ele>
        <time>2010-11-13T14:59:46.000Z</time>
      </trkpt>
      <trkpt lat="45.0461" lon="5.39023">
        <ele>916.79998779297</ele>
        <time>2010-11-13T14:59:52.000Z</time>
      </trkpt>
      <trkpt lat="45.04611" lon="5.39022">
        <ele>916</ele>
        <time>2010-11-13T14:59:56.000Z</time>
      </trkpt>
      <trkpt lat="45.04601" lon="5.39031">
        <ele>924</ele>
        <time>2010-11-13T15:00:03.000Z</time>
      </trkpt>
      <trkpt lat="45.04599" lon="5.39023">
        <ele>923.59997558594</ele>
        <time>2010-11-13T15:00:13.000Z</time>
      </trkpt>
      <trkpt lat="45.04604" lon="5.39016">
        <ele>919.40002441406</ele>
        <time>2010-11-13T15:00:17.000Z</time>
      </trkpt>
      <trkpt lat="45.0461" lon="5.39016">
        <ele>916</ele>
        <time>2010-11-13T15:00:21.000Z</time>
      </trkpt>
      <trkpt lat="45.04621" lon="5.39012">
        <ele>909.20001220703</ele>
        <time>2010-11-13T15:00:29.000Z</time>
      </trkpt>
      <trkpt lat="45.04629" lon="5.39004">
        <ele>904.40002441406</ele>
        <time>2010-11-13T15:00:38.000Z</time>
      </trkpt>
      <trkpt lat="45.04637" lon="5.38998">
        <ele>900.79998779297</ele>
        <time>2010-11-13T15:00:48.000Z</time>
      </trkpt>
      <trkpt lat="45.04643" lon="5.38994">
        <ele>898.59997558594</ele>
        <time>2010-11-13T15:00:53.000Z</time>
      </trkpt>
      <trkpt lat="45.04648" lon="5.38989">
        <ele>897.40002441406</ele>
        <time>2010-11-13T15:00:57.000Z</time>
      </trkpt>
      <trkpt lat="45.04674" lon="5.38959">
        <ele>898.59997558594</ele>
        <time>2010-11-13T15:01:11.000Z</time>
      </trkpt>
      <trkpt lat="45.04679" lon="5.38956">
        <ele>899</ele>
        <time>2010-11-13T15:01:14.000Z</time>
      </trkpt>
      <trkpt lat="45.04679" lon="5.38958">
        <ele>898.20001220703</ele>
        <time>2010-11-13T15:01:20.000Z</time>
      </trkpt>
      <trkpt lat="45.04677" lon="5.38958">
        <ele>898.40002441406</ele>
        <time>2010-11-13T15:01:22.000Z</time>
      </trkpt>
      <trkpt lat="45.04677" lon="5.38952">
        <ele>900.59997558594</ele>
        <time>2010-11-13T15:01:30.000Z</time>
      </trkpt>
      <trkpt lat="45.04677" lon="5.3895">
        <ele>901.20001220703</ele>
        <time>2010-11-13T15:01:31.000Z</time>
      </trkpt>
      <trkpt lat="45.04684" lon="5.38936">
        <ele>905</ele>
        <time>2010-11-13T15:01:42.000Z</time>
      </trkpt>
      <trkpt lat="45.04683" lon="5.38933">
        <ele>905.79998779297</ele>
        <time>2010-11-13T15:01:45.000Z</time>
      </trkpt>
      <trkpt lat="45.0468" lon="5.38931">
        <ele>906.79998779297</ele>
        <time>2010-11-13T15:01:49.000Z</time>
      </trkpt>
      <trkpt lat="45.04673" lon="5.38933">
        <ele>906.79998779297</ele>
        <time>2010-11-13T15:01:56.000Z</time>
      </trkpt>
      <trkpt lat="45.04667" lon="5.38933">
        <ele>907.79998779297</ele>
        <time>2010-11-13T15:02:00.000Z</time>
      </trkpt>
      <trkpt lat="45.04662" lon="5.3893">
        <ele>908.79998779297</ele>
        <time>2010-11-13T15:02:04.000Z</time>
      </trkpt>
      <trkpt lat="45.04656" lon="5.38929">
        <ele>909.20001220703</ele>
        <time>2010-11-13T15:02:09.000Z</time>
      </trkpt>
      <trkpt lat="45.04654" lon="5.38926">
        <ele>910.20001220703</ele>
        <time>2010-11-13T15:02:13.000Z</time>
      </trkpt>
      <trkpt lat="45.0465" lon="5.38926">
        <ele>910.20001220703</ele>
        <time>2010-11-13T15:02:21.000Z</time>
      </trkpt>
      <trkpt lat="45.04642" lon="5.38914">
        <ele>912.59997558594</ele>
        <time>2010-11-13T15:02:30.000Z</time>
      </trkpt>
      <trkpt lat="45.04638" lon="5.38909">
        <ele>913.40002441406</ele>
        <time>2010-11-13T15:02:34.000Z</time>
      </trkpt>
      <trkpt lat="45.04627" lon="5.38905">
        <ele>913.20001220703</ele>
        <time>2010-11-13T15:02:44.000Z</time>
      </trkpt>
      <trkpt lat="45.04626" lon="5.38904">
        <ele>913.20001220703</ele>
        <time>2010-11-13T15:02:46.000Z</time>
      </trkpt>
      <trkpt lat="45.04623" lon="5.38904">
        <ele>913</ele>
        <time>2010-11-13T15:02:49.000Z</time>
      </trkpt>
      <trkpt lat="45.04614" lon="5.38898">
        <ele>912.79998779297</ele>
        <time>2010-11-13T15:03:00.000Z</time>
      </trkpt>
      <trkpt lat="45.04611" lon="5.38898">
        <ele>912.59997558594</ele>
        <time>2010-11-13T15:03:03.000Z</time>
      </trkpt>
      <trkpt lat="45.04609" lon="5.38887">
        <ele>913.20001220703</ele>
        <time>2010-11-13T15:03:15.000Z</time>
      </trkpt>
      <trkpt lat="45.04609" lon="5.38878">
        <ele>913.79998779297</ele>
        <time>2010-11-13T15:03:26.000Z</time>
      </trkpt>
      <trkpt lat="45.04607" lon="5.38861">
        <ele>914.59997558594</ele>
        <time>2010-11-13T15:03:36.000Z</time>
      </trkpt>
      <trkpt lat="45.04616" lon="5.3885">
        <ele>918.40002441406</ele>
        <time>2010-11-13T15:03:45.000Z</time>
      </trkpt>
      <trkpt lat="45.04622" lon="5.38836">
        <ele>921.79998779297</ele>
        <time>2010-11-13T15:03:50.000Z</time>
      </trkpt>
      <trkpt lat="45.04626" lon="5.38818">
        <ele>921.79998779297</ele>
        <time>2010-11-13T15:03:55.000Z</time>
      </trkpt>
      <trkpt lat="45.04625" lon="5.3881">
        <ele>920</ele>
        <time>2010-11-13T15:04:07.000Z</time>
      </trkpt>
      <trkpt lat="45.04622" lon="5.38809">
        <ele>918.59997558594</ele>
        <time>2010-11-13T15:04:13.000Z</time>
      </trkpt>
      <trkpt lat="45.04622" lon="5.38806">
        <ele>918.20001220703</ele>
        <time>2010-11-13T15:04:18.000Z</time>
      </trkpt>
      <trkpt lat="45.04626" lon="5.38789">
        <ele>917.20001220703</ele>
        <time>2010-11-13T15:04:30.000Z</time>
      </trkpt>
      <trkpt lat="45.04626" lon="5.38782">
        <ele>916.40002441406</ele>
        <time>2010-11-13T15:04:32.000Z</time>
      </trkpt>
      <trkpt lat="45.04623" lon="5.38774">
        <ele>914</ele>
        <time>2010-11-13T15:04:35.000Z</time>
      </trkpt>
      <trkpt lat="45.04616" lon="5.38767">
        <ele>910</ele>
        <time>2010-11-13T15:04:42.000Z</time>
      </trkpt>
      <trkpt lat="45.04616" lon="5.3875">
        <ele>907.40002441406</ele>
        <time>2010-11-13T15:04:52.000Z</time>
      </trkpt>
      <trkpt lat="45.04615" lon="5.38745">
        <ele>905.20001220703</ele>
        <time>2010-11-13T15:04:54.000Z</time>
      </trkpt>
      <trkpt lat="45.04615" lon="5.38735">
        <ele>902.40002441406</ele>
        <time>2010-11-13T15:04:59.000Z</time>
      </trkpt>
      <trkpt lat="45.04614" lon="5.38724">
        <ele>899</ele>
        <time>2010-11-13T15:05:10.000Z</time>
      </trkpt>
      <trkpt lat="45.04612" lon="5.3868">
        <ele>885.59997558594</ele>
        <time>2010-11-13T15:05:26.000Z</time>
      </trkpt>
      <trkpt lat="45.04611" lon="5.38677">
        <ele>884.40002441406</ele>
        <time>2010-11-13T15:05:27.000Z</time>
      </trkpt>
      <trkpt lat="45.04599" lon="5.38658">
        <ele>874.20001220703</ele>
        <time>2010-11-13T15:05:33.000Z</time>
      </trkpt>
      <trkpt lat="45.0459" lon="5.38655">
        <ele>870</ele>
        <time>2010-11-13T15:05:37.000Z</time>
      </trkpt>
      <trkpt lat="45.04583" lon="5.38657">
        <ele>867.40002441406</ele>
        <time>2010-11-13T15:05:41.000Z</time>
      </trkpt>
      <trkpt lat="45.04562" lon="5.38667">
        <ele>858.59997558594</ele>
        <time>2010-11-13T15:05:50.000Z</time>
      </trkpt>
      <trkpt lat="45.04545" lon="5.38674">
        <ele>850.79998779297</ele>
        <time>2010-11-13T15:06:00.000Z</time>
      </trkpt>
      <trkpt lat="45.04524" lon="5.38687">
        <ele>842</ele>
        <time>2010-11-13T15:06:08.000Z</time>
      </trkpt>
      <trkpt lat="45.04517" lon="5.38693">
        <ele>839</ele>
        <time>2010-11-13T15:06:12.000Z</time>
      </trkpt>
      <trkpt lat="45.04492" lon="5.38718">
        <ele>832.20001220703</ele>
        <time>2010-11-13T15:06:25.000Z</time>
      </trkpt>
      <trkpt lat="45.04495" lon="5.38723">
        <ele>834.59997558594</ele>
        <time>2010-11-13T15:06:38.000Z</time>
      </trkpt>
      <trkpt lat="45.04495" lon="5.38721">
        <ele>834.40002441406</ele>
        <time>2010-11-13T15:06:39.000Z</time>
      </trkpt>
      <trkpt lat="45.04495" lon="5.38714">
        <ele>832.59997558594</ele>
        <time>2010-11-13T15:06:44.000Z</time>
      </trkpt>
      <trkpt lat="45.04494" lon="5.387">
        <ele>828.59997558594</ele>
        <time>2010-11-13T15:06:51.000Z</time>
      </trkpt>
      <trkpt lat="45.04494" lon="5.38696">
        <ele>827.20001220703</ele>
        <time>2010-11-13T15:06:53.000Z</time>
      </trkpt>
      <trkpt lat="45.04492" lon="5.38674">
        <ele>820.79998779297</ele>
        <time>2010-11-13T15:07:03.000Z</time>
      </trkpt>
      <trkpt lat="45.04486" lon="5.38643">
        <ele>809.79998779297</ele>
        <time>2010-11-13T15:07:19.000Z</time>
      </trkpt>
      <trkpt lat="45.04482" lon="5.38612">
        <ele>799</ele>
        <time>2010-11-13T15:07:32.000Z</time>
      </trkpt>
      <trkpt lat="45.04479" lon="5.3859">
        <ele>791.79998779297</ele>
        <time>2010-11-13T15:07:46.000Z</time>
      </trkpt>
      <trkpt lat="45.04475" lon="5.38567">
        <ele>782.79998779297</ele>
        <time>2010-11-13T15:07:58.000Z</time>
      </trkpt>
      <trkpt lat="45.04475" lon="5.38563">
        <ele>781.79998779297</ele>
        <time>2010-11-13T15:08:22.000Z</time>
      </trkpt>
      <trkpt lat="45.04477" lon="5.38562">
        <ele>782.79998779297</ele>
        <time>2010-11-13T15:08:37.000Z</time>
      </trkpt>
      <trkpt lat="45.0448" lon="5.38558">
        <ele>783.40002441406</ele>
        <time>2010-11-13T15:08:42.000Z</time>
      </trkpt>
      <trkpt lat="45.04481" lon="5.38555">
        <ele>783.40002441406</ele>
        <time>2010-11-13T15:08:44.000Z</time>
      </trkpt>
      <trkpt lat="45.04488" lon="5.38534">
        <ele>781</ele>
        <time>2010-11-13T15:08:56.000Z</time>
      </trkpt>
      <trkpt lat="45.0449" lon="5.38527">
        <ele>780.20001220703</ele>
        <time>2010-11-13T15:09:00.000Z</time>
      </trkpt>
      <trkpt lat="45.04499" lon="5.38496">
        <ele>775.40002441406</ele>
        <time>2010-11-13T15:09:10.000Z</time>
      </trkpt>
      <trkpt lat="45.04508" lon="5.38482">
        <ele>773.40002441406</ele>
        <time>2010-11-13T15:09:17.000Z</time>
      </trkpt>
      <trkpt lat="45.04512" lon="5.38467">
        <ele>768.59997558594</ele>
        <time>2010-11-13T15:09:22.000Z</time>
      </trkpt>
      <trkpt lat="45.04516" lon="5.38458">
        <ele>766.59997558594</ele>
        <time>2010-11-13T15:09:26.000Z</time>
      </trkpt>
      <trkpt lat="45.04532" lon="5.38438">
        <ele>765.40002441406</ele>
        <time>2010-11-13T15:09:42.000Z</time>
      </trkpt>
      <trkpt lat="45.04537" lon="5.38439">
        <ele>767.79998779297</ele>
        <time>2010-11-13T15:10:12.000Z</time>
      </trkpt>
      <trkpt lat="45.04538" lon="5.38439">
        <ele>768.20001220703</ele>
        <time>2010-11-13T15:10:47.000Z</time>
      </trkpt>
      <trkpt lat="45.0454" lon="5.38438">
        <ele>768.59997558594</ele>
        <time>2010-11-13T15:10:51.000Z</time>
      </trkpt>
      <trkpt lat="45.04544" lon="5.38427">
        <ele>766.40002441406</ele>
        <time>2010-11-13T15:10:57.000Z</time>
      </trkpt>
      <trkpt lat="45.04547" lon="5.38422">
        <ele>766</ele>
        <time>2010-11-13T15:11:00.000Z</time>
      </trkpt>
      <trkpt lat="45.04558" lon="5.38405">
        <ele>764.59997558594</ele>
        <time>2010-11-13T15:11:11.000Z</time>
      </trkpt>
      <trkpt lat="45.04563" lon="5.38384">
        <ele>758.40002441406</ele>
        <time>2010-11-13T15:11:20.000Z</time>
      </trkpt>
      <trkpt lat="45.04571" lon="5.38345">
        <ele>746.40002441406</ele>
        <time>2010-11-13T15:11:32.000Z</time>
      </trkpt>
      <trkpt lat="45.04581" lon="5.38324">
        <ele>743.20001220703</ele>
        <time>2010-11-13T15:11:41.000Z</time>
      </trkpt>
      <trkpt lat="45.04599" lon="5.38285">
        <ele>735.59997558594</ele>
        <time>2010-11-13T15:11:56.000Z</time>
      </trkpt>
      <trkpt lat="45.04601" lon="5.38279">
        <ele>734</ele>
        <time>2010-11-13T15:11:58.000Z</time>
      </trkpt>
      <trkpt lat="45.0463" lon="5.38251">
        <ele>731.59997558594</ele>
        <time>2010-11-13T15:12:14.000Z</time>
      </trkpt>
      <trkpt lat="45.04654" lon="5.38229">
        <ele>730.40002441406</ele>
        <time>2010-11-13T15:12:27.000Z</time>
      </trkpt>
      <trkpt lat="45.04659" lon="5.3822">
        <ele>727.59997558594</ele>
        <time>2010-11-13T15:12:31.000Z</time>
      </trkpt>
      <trkpt lat="45.04661" lon="5.38215">
        <ele>726.20001220703</ele>
        <time>2010-11-13T15:12:33.000Z</time>
      </trkpt>
      <trkpt lat="45.04685" lon="5.38186">
        <ele>723.40002441406</ele>
        <time>2010-11-13T15:12:44.000Z</time>
      </trkpt>
      <trkpt lat="45.04689" lon="5.38179">
        <ele>722.20001220703</ele>
        <time>2010-11-13T15:12:46.000Z</time>
      </trkpt>
      <trkpt lat="45.04706" lon="5.38132">
        <ele>711.59997558594</ele>
        <time>2010-11-13T15:12:59.000Z</time>
      </trkpt>
      <trkpt lat="45.04707" lon="5.38125">
        <ele>709.20001220703</ele>
        <time>2010-11-13T15:13:01.000Z</time>
      </trkpt>
      <trkpt lat="45.04711" lon="5.38101">
        <ele>701.59997558594</ele>
        <time>2010-11-13T15:13:07.000Z</time>
      </trkpt>
      <trkpt lat="45.04717" lon="5.38075">
        <ele>694</ele>
        <time>2010-11-13T15:13:15.000Z</time>
      </trkpt>
      <trkpt lat="45.04722" lon="5.38069">
        <ele>694.40002441406</ele>
        <time>2010-11-13T15:13:18.000Z</time>
      </trkpt>
      <trkpt lat="45.04742" lon="5.38038">
        <ele>690.40002441406</ele>
        <time>2010-11-13T15:13:32.000Z</time>
      </trkpt>
      <trkpt lat="45.04748" lon="5.3803">
        <ele>689.20001220703</ele>
        <time>2010-11-13T15:13:36.000Z</time>
      </trkpt>
      <trkpt lat="45.04754" lon="5.38015">
        <ele>685.79998779297</ele>
        <time>2010-11-13T15:13:41.000Z</time>
      </trkpt>
      <trkpt lat="45.04757" lon="5.38003">
        <ele>681.59997558594</ele>
        <time>2010-11-13T15:13:45.000Z</time>
      </trkpt>
      <trkpt lat="45.0476" lon="5.37991">
        <ele>678.59997558594</ele>
        <time>2010-11-13T15:13:49.000Z</time>
      </trkpt>
      <trkpt lat="45.04762" lon="5.37985">
        <ele>677.20001220703</ele>
        <time>2010-11-13T15:13:51.000Z</time>
      </trkpt>
      <trkpt lat="45.04771" lon="5.37959">
        <ele>671.79998779297</ele>
        <time>2010-11-13T15:14:00.000Z</time>
      </trkpt>
      <trkpt lat="45.04775" lon="5.37945">
        <ele>668.20001220703</ele>
        <time>2010-11-13T15:14:04.000Z</time>
      </trkpt>
      <trkpt lat="45.0478" lon="5.37934">
        <ele>666.20001220703</ele>
        <time>2010-11-13T15:14:08.000Z</time>
      </trkpt>
      <trkpt lat="45.04794" lon="5.37907">
        <ele>661.20001220703</ele>
        <time>2010-11-13T15:14:18.000Z</time>
      </trkpt>
      <trkpt lat="45.04796" lon="5.37904">
        <ele>660.59997558594</ele>
        <time>2010-11-13T15:14:19.000Z</time>
      </trkpt>
      <trkpt lat="45.04807" lon="5.37887">
        <ele>658.40002441406</ele>
        <time>2010-11-13T15:14:25.000Z</time>
      </trkpt>
      <trkpt lat="45.04821" lon="5.37843">
        <ele>645.20001220703</ele>
        <time>2010-11-13T15:14:37.000Z</time>
      </trkpt>
      <trkpt lat="45.04832" lon="5.37827">
        <ele>644.40002441406</ele>
        <time>2010-11-13T15:14:43.000Z</time>
      </trkpt>
      <trkpt lat="45.04844" lon="5.37807">
        <ele>644.59997558594</ele>
        <time>2010-11-13T15:14:50.000Z</time>
      </trkpt>
      <trkpt lat="45.04865" lon="5.37766">
        <ele>644.20001220703</ele>
        <time>2010-11-13T15:15:02.000Z</time>
      </trkpt>
      <trkpt lat="45.04869" lon="5.37764">
        <ele>645.59997558594</ele>
        <time>2010-11-13T15:15:04.000Z</time>
      </trkpt>
      <trkpt lat="45.04873" lon="5.37762">
        <ele>647.40002441406</ele>
        <time>2010-11-13T15:15:06.000Z</time>
      </trkpt>
      <trkpt lat="45.04885" lon="5.37759">
        <ele>652.79998779297</ele>
        <time>2010-11-13T15:15:11.000Z</time>
      </trkpt>
      <trkpt lat="45.04891" lon="5.37753">
        <ele>654.20001220703</ele>
        <time>2010-11-13T15:15:14.000Z</time>
      </trkpt>
      <trkpt lat="45.04899" lon="5.37727">
        <ele>653.59997558594</ele>
        <time>2010-11-13T15:15:22.000Z</time>
      </trkpt>
      <trkpt lat="45.04895" lon="5.37688">
        <ele>644.79998779297</ele>
        <time>2010-11-13T15:15:27.000Z</time>
      </trkpt>
      <trkpt lat="45.049" lon="5.3764">
        <ele>637.59997558594</ele>
        <time>2010-11-13T15:15:37.000Z</time>
      </trkpt>
      <trkpt lat="45.049" lon="5.3758">
        <ele>624</ele>
        <time>2010-11-13T15:15:47.000Z</time>
      </trkpt>
      <trkpt lat="45.04911" lon="5.37525">
        <ele>609</ele>
        <time>2010-11-13T15:16:00.000Z</time>
      </trkpt>
      <trkpt lat="45.04913" lon="5.37522">
        <ele>608.59997558594</ele>
        <time>2010-11-13T15:16:01.000Z</time>
      </trkpt>
      <trkpt lat="45.04939" lon="5.37501">
        <ele>605.79998779297</ele>
        <time>2010-11-13T15:16:12.000Z</time>
      </trkpt>
      <trkpt lat="45.04972" lon="5.37456">
        <ele>599.59997558594</ele>
        <time>2010-11-13T15:16:25.000Z</time>
      </trkpt>
      <trkpt lat="45.05017" lon="5.37435">
        <ele>596.20001220703</ele>
        <time>2010-11-13T15:16:38.000Z</time>
      </trkpt>
      <trkpt lat="45.05062" lon="5.37462">
        <ele>599</ele>
        <time>2010-11-13T15:16:53.000Z</time>
      </trkpt>
      <trkpt lat="45.0508" lon="5.37474">
        <ele>600.59997558594</ele>
        <time>2010-11-13T15:17:04.000Z</time>
      </trkpt>
      <trkpt lat="45.05092" lon="5.37476">
        <ele>601.59997558594</ele>
        <time>2010-11-13T15:17:21.000Z</time>
      </trkpt>
      <trkpt lat="45.05128" lon="5.37457">
        <ele>598.40002441406</ele>
        <time>2010-11-13T15:17:34.000Z</time>
      </trkpt>
      <trkpt lat="45.05154" lon="5.37423">
        <ele>588.59997558594</ele>
        <time>2010-11-13T15:17:47.000Z</time>
      </trkpt>
      <trkpt lat="45.05175" lon="5.37385">
        <ele>583.20001220703</ele>
        <time>2010-11-13T15:18:00.000Z</time>
      </trkpt>
      <trkpt lat="45.05199" lon="5.37315">
        <ele>578</ele>
        <time>2010-11-13T15:18:16.000Z</time>
      </trkpt>
      <trkpt lat="45.05233" lon="5.37254">
        <ele>578</ele>
        <time>2010-11-13T15:18:32.000Z</time>
      </trkpt>
      <trkpt lat="45.0526" lon="5.37193">
        <ele>571.79998779297</ele>
        <time>2010-11-13T15:18:46.000Z</time>
      </trkpt>
      <trkpt lat="45.05284" lon="5.37144">
        <ele>569.40002441406</ele>
        <time>2010-11-13T15:19:01.000Z</time>
      </trkpt>
      <trkpt lat="45.05283" lon="5.37138">
        <ele>568.59997558594</ele>
        <time>2010-11-13T15:19:06.000Z</time>
      </trkpt>
      <trkpt lat="45.05273" lon="5.37121">
        <ele>565.40002441406</ele>
        <time>2010-11-13T15:19:16.000Z</time>
      </trkpt>
      <trkpt lat="45.05273" lon="5.37114">
        <ele>564.79998779297</ele>
        <time>2010-11-13T15:19:18.000Z</time>
      </trkpt>
      <trkpt lat="45.05267" lon="5.37053">
        <ele>557.79998779297</ele>
        <time>2010-11-13T15:19:35.000Z</time>
      </trkpt>
      <trkpt lat="45.05257" lon="5.36993">
        <ele>551.20001220703</ele>
        <time>2010-11-13T15:19:51.000Z</time>
      </trkpt>
      <trkpt lat="45.05257" lon="5.3694">
        <ele>545.40002441406</ele>
        <time>2010-11-13T15:20:06.000Z</time>
      </trkpt>
      <trkpt lat="45.05262" lon="5.36913">
        <ele>542.79998779297</ele>
        <time>2010-11-13T15:20:18.000Z</time>
      </trkpt>
      <trkpt lat="45.05289" lon="5.36858">
        <ele>536.40002441406</ele>
        <time>2010-11-13T15:20:33.000Z</time>
      </trkpt>
      <trkpt lat="45.05319" lon="5.36811">
        <ele>532.40002441406</ele>
        <time>2010-11-13T15:20:48.000Z</time>
      </trkpt>
      <trkpt lat="45.05323" lon="5.36799">
        <ele>531.59997558594</ele>
        <time>2010-11-13T15:20:52.000Z</time>
      </trkpt>
      <trkpt lat="45.05324" lon="5.36796">
        <ele>531.40002441406</ele>
        <time>2010-11-13T15:20:54.000Z</time>
      </trkpt>
      <trkpt lat="45.05312" lon="5.36796">
        <ele>530.40002441406</ele>
        <time>2010-11-13T15:21:09.000Z</time>
      </trkpt>
      <trkpt lat="45.05311" lon="5.36796">
        <ele>530.40002441406</ele>
        <time>2010-11-13T15:21:12.000Z</time>
      </trkpt>
      <trkpt lat="45.05311" lon="5.36796">
        <ele>530.20001220703</ele>
        <time>2010-11-13T15:21:14.000Z</time>
      </trkpt>
      <trkpt lat="45.05277" lon="5.36795">
        <ele>527.40002441406</ele>
        <time>2010-11-13T15:21:30.000Z</time>
      </trkpt>
      <trkpt lat="45.05231" lon="5.36796">
        <ele>523.59997558594</ele>
        <time>2010-11-13T15:21:46.000Z</time>
      </trkpt>
      <trkpt lat="45.05214" lon="5.36794">
        <ele>522</ele>
        <time>2010-11-13T15:21:57.000Z</time>
      </trkpt>
      <trkpt lat="45.05211" lon="5.36793">
        <ele>521.40002441406</ele>
        <time>2010-11-13T15:22:13.000Z</time>
      </trkpt>
      <trkpt lat="45.05183" lon="5.36794">
        <ele>519.20001220703</ele>
        <time>2010-11-13T15:22:25.000Z</time>
      </trkpt>
      <trkpt lat="45.0512" lon="5.368">
        <ele>510.79998779297</ele>
        <time>2010-11-13T15:22:44.000Z</time>
      </trkpt>
      <trkpt lat="45.0507" lon="5.3681">
        <ele>501.79998779297</ele>
        <time>2010-11-13T15:23:00.000Z</time>
      </trkpt>
      <trkpt lat="45.05066" lon="5.36807">
        <ele>500</ele>
        <time>2010-11-13T15:23:05.000Z</time>
      </trkpt>
      <trkpt lat="45.05077" lon="5.36786">
        <ele>499.20001220703</ele>
        <time>2010-11-13T15:23:19.000Z</time>
      </trkpt>
      <trkpt lat="45.05081" lon="5.36779">
        <ele>498.79998779297</ele>
        <time>2010-11-13T15:23:32.000Z</time>
      </trkpt>
      <trkpt lat="45.05083" lon="5.36776">
        <ele>498.79998779297</ele>
        <time>2010-11-13T15:23:58.000Z</time>
      </trkpt>
      <trkpt lat="45.05099" lon="5.36765">
        <ele>499.39999389648</ele>
        <time>2010-11-13T15:24:05.000Z</time>
      </trkpt>
      <trkpt lat="45.05121" lon="5.36733">
        <ele>493.79998779297</ele>
        <time>2010-11-13T15:24:19.000Z</time>
      </trkpt>
      <trkpt lat="45.0514" lon="5.36708">
        <ele>488.39999389648</ele>
        <time>2010-11-13T15:24:30.000Z</time>
      </trkpt>
      <trkpt lat="45.05149" lon="5.36699">
        <ele>487</ele>
        <time>2010-11-13T15:24:34.000Z</time>
      </trkpt>
      <trkpt lat="45.05181" lon="5.36668">
        <ele>483.20001220703</ele>
        <time>2010-11-13T15:24:48.000Z</time>
      </trkpt>
      <trkpt lat="45.05196" lon="5.3666">
        <ele>485.20001220703</ele>
        <time>2010-11-13T15:24:53.000Z</time>
      </trkpt>
      <trkpt lat="45.05204" lon="5.36653">
        <ele>485.79998779297</ele>
        <time>2010-11-13T15:24:57.000Z</time>
      </trkpt>
      <trkpt lat="45.05214" lon="5.36647">
        <ele>487.60000610352</ele>
        <time>2010-11-13T15:25:02.000Z</time>
      </trkpt>
      <trkpt lat="45.0522" lon="5.366">
        <ele>478.39999389648</ele>
        <time>2010-11-13T15:25:15.000Z</time>
      </trkpt>
      <trkpt lat="45.05236" lon="5.36542">
        <ele>473.79998779297</ele>
        <time>2010-11-13T15:25:29.000Z</time>
      </trkpt>
      <trkpt lat="45.05255" lon="5.3649">
        <ele>472.20001220703</ele>
        <time>2010-11-13T15:25:41.000Z</time>
      </trkpt>
      <trkpt lat="45.05252" lon="5.36458">
        <ele>463.20001220703</ele>
        <time>2010-11-13T15:25:49.000Z</time>
      </trkpt>
      <trkpt lat="45.0525" lon="5.36456">
        <ele>461.79998779297</ele>
        <time>2010-11-13T15:25:50.000Z</time>
      </trkpt>
      <trkpt lat="45.05226" lon="5.36462">
        <ele>450.60000610352</ele>
        <time>2010-11-13T15:26:02.000Z</time>
      </trkpt>
      <trkpt lat="45.05201" lon="5.36487">
        <ele>441.39999389648</ele>
        <time>2010-11-13T15:26:13.000Z</time>
      </trkpt>
      <trkpt lat="45.05184" lon="5.36532">
        <ele>442</ele>
        <time>2010-11-13T15:26:24.000Z</time>
      </trkpt>
      <trkpt lat="45.05183" lon="5.36541">
        <ele>443.60000610352</ele>
        <time>2010-11-13T15:26:26.000Z</time>
      </trkpt>
      <trkpt lat="45.05174" lon="5.36554">
        <ele>442.39999389648</ele>
        <time>2010-11-13T15:26:32.000Z</time>
      </trkpt>
      <trkpt lat="45.05169" lon="5.36559">
        <ele>440.60000610352</ele>
        <time>2010-11-13T15:26:37.000Z</time>
      </trkpt>
      <trkpt lat="45.0514" lon="5.36566">
        <ele>434.60000610352</ele>
        <time>2010-11-13T15:26:51.000Z</time>
      </trkpt>
      <trkpt lat="45.05101" lon="5.36557">
        <ele>421.79998779297</ele>
        <time>2010-11-13T15:27:05.000Z</time>
      </trkpt>
      <trkpt lat="45.05082" lon="5.3656">
        <ele>418</ele>
        <time>2010-11-13T15:27:10.000Z</time>
      </trkpt>
      <trkpt lat="45.05026" lon="5.36583">
        <ele>412</ele>
        <time>2010-11-13T15:27:20.000Z</time>
      </trkpt>
      <trkpt lat="45.0502" lon="5.36584">
        <ele>410.39999389648</ele>
        <time>2010-11-13T15:27:22.000Z</time>
      </trkpt>
      <trkpt lat="45.05014" lon="5.36588">
        <ele>410</ele>
        <time>2010-11-13T15:27:28.000Z</time>
      </trkpt>
      <trkpt lat="45.04998" lon="5.36596">
        <ele>408.79998779297</ele>
        <time>2010-11-13T15:27:35.000Z</time>
      </trkpt>
      <trkpt lat="45.04975" lon="5.36603">
        <ele>405.60000610352</ele>
        <time>2010-11-13T15:27:44.000Z</time>
      </trkpt>
      <trkpt lat="45.04958" lon="5.36622">
        <ele>408.20001220703</ele>
        <time>2010-11-13T15:27:54.000Z</time>
      </trkpt>
      <trkpt lat="45.04956" lon="5.36622">
        <ele>408.20001220703</ele>
        <time>2010-11-13T15:27:55.000Z</time>
      </trkpt>
      <trkpt lat="45.04954" lon="5.36622">
        <ele>407.39999389648</ele>
        <time>2010-11-13T15:27:58.000Z</time>
      </trkpt>
      <trkpt lat="45.04947" lon="5.36623">
        <ele>406.20001220703</ele>
        <time>2010-11-13T15:28:03.000Z</time>
      </trkpt>
      <trkpt lat="45.04907" lon="5.36626">
        <ele>398.39999389648</ele>
        <time>2010-11-13T15:28:14.000Z</time>
      </trkpt>
      <trkpt lat="45.04903" lon="5.36627">
        <ele>398</ele>
        <time>2010-11-13T15:28:15.000Z</time>
      </trkpt>
      <trkpt lat="45.04875" lon="5.36642">
        <ele>398.79998779297</ele>
        <time>2010-11-13T15:28:24.000Z</time>
      </trkpt>
      <trkpt lat="45.04852" lon="5.36653">
        <ele>398.60000610352</ele>
        <time>2010-11-13T15:28:34.000Z</time>
      </trkpt>
      <trkpt lat="45.0484" lon="5.36638">
        <ele>391.39999389648</ele>
        <time>2010-11-13T15:28:45.000Z</time>
      </trkpt>
      <trkpt lat="45.04838" lon="5.36634">
        <ele>389.79998779297</ele>
        <time>2010-11-13T15:28:47.000Z</time>
      </trkpt>
      <trkpt lat="45.04825" lon="5.36641">
        <ele>389.39999389648</ele>
        <time>2010-11-13T15:28:52.000Z</time>
      </trkpt>
      <trkpt lat="45.04848" lon="5.36649">
        <ele>396</ele>
        <time>2010-11-13T15:29:05.000Z</time>
      </trkpt>
      <trkpt lat="45.04876" lon="5.36623">
        <ele>392.20001220703</ele>
        <time>2010-11-13T15:29:19.000Z</time>
      </trkpt>
      <trkpt lat="45.0491" lon="5.36601">
        <ele>389</ele>
        <time>2010-11-13T15:29:34.000Z</time>
      </trkpt>
      <trkpt lat="45.04934" lon="5.36583">
        <ele>387.39999389648</ele>
        <time>2010-11-13T15:29:47.000Z</time>
      </trkpt>
      <trkpt lat="45.04942" lon="5.36559">
        <ele>383.79998779297</ele>
        <time>2010-11-13T15:29:58.000Z</time>
      </trkpt>
      <trkpt lat="45.04942" lon="5.36554">
        <ele>382.79998779297</ele>
        <time>2010-11-13T15:30:00.000Z</time>
      </trkpt>
      <trkpt lat="45.04944" lon="5.36537">
        <ele>379.20001220703</ele>
        <time>2010-11-13T15:30:15.000Z</time>
      </trkpt>
      <trkpt lat="45.04952" lon="5.36514">
        <ele>375.79998779297</ele>
        <time>2010-11-13T15:30:28.000Z</time>
      </trkpt>
      <trkpt lat="45.04955" lon="5.36499">
        <ele>372.79998779297</ele>
        <time>2010-11-13T15:30:33.000Z</time>
      </trkpt>
      <trkpt lat="45.04957" lon="5.36491">
        <ele>371.79998779297</ele>
        <time>2010-11-13T15:30:36.000Z</time>
      </trkpt>
      <trkpt lat="45.04983" lon="5.36454">
        <ele>370.20001220703</ele>
        <time>2010-11-13T15:30:50.000Z</time>
      </trkpt>
      <trkpt lat="45.05023" lon="5.36436">
        <ele>375</ele>
        <time>2010-11-13T15:31:02.000Z</time>
      </trkpt>
      <trkpt lat="45.05036" lon="5.36422">
        <ele>375</ele>
        <time>2010-11-13T15:31:11.000Z</time>
      </trkpt>
      <trkpt lat="45.05036" lon="5.36412">
        <ele>374.79998779297</ele>
        <time>2010-11-13T15:31:15.000Z</time>
      </trkpt>
      <trkpt lat="45.05027" lon="5.36389">
        <ele>375.60000610352</ele>
        <time>2010-11-13T15:31:28.000Z</time>
      </trkpt>
      <trkpt lat="45.05006" lon="5.36359">
        <ele>372</ele>
        <time>2010-11-13T15:31:40.000Z</time>
      </trkpt>
      <trkpt lat="45.04988" lon="5.36342">
        <ele>368.79998779297</ele>
        <time>2010-11-13T15:31:49.000Z</time>
      </trkpt>
      <trkpt lat="45.0496" lon="5.36325">
        <ele>364</ele>
        <time>2010-11-13T15:32:03.000Z</time>
      </trkpt>
      <trkpt lat="45.04935" lon="5.36319">
        <ele>358.39999389648</ele>
        <time>2010-11-13T15:32:14.000Z</time>
      </trkpt>
      <trkpt lat="45.04912" lon="5.36321">
        <ele>353</ele>
        <time>2010-11-13T15:32:26.000Z</time>
      </trkpt>
      <trkpt lat="45.04885" lon="5.36309">
        <ele>347</ele>
        <time>2010-11-13T15:32:37.000Z</time>
      </trkpt>
      <trkpt lat="45.04856" lon="5.36299">
        <ele>339.79998779297</ele>
        <time>2010-11-13T15:32:48.000Z</time>
      </trkpt>
      <trkpt lat="45.04818" lon="5.363">
        <ele>331.39999389648</ele>
        <time>2010-11-13T15:33:01.000Z</time>
      </trkpt>
      <trkpt lat="45.04813" lon="5.36302">
        <ele>330.60000610352</ele>
        <time>2010-11-13T15:33:03.000Z</time>
      </trkpt>
      <trkpt lat="45.04803" lon="5.36326">
        <ele>331</ele>
        <time>2010-11-13T15:33:14.000Z</time>
      </trkpt>
      <trkpt lat="45.04813" lon="5.36339">
        <ele>333.60000610352</ele>
        <time>2010-11-13T15:33:19.000Z</time>
      </trkpt>
      <trkpt lat="45.04818" lon="5.36349">
        <ele>334.39999389648</ele>
        <time>2010-11-13T15:33:24.000Z</time>
      </trkpt>
      <trkpt lat="45.04801" lon="5.36336">
        <ele>331.39999389648</ele>
        <time>2010-11-13T15:33:39.000Z</time>
      </trkpt>
      <trkpt lat="45.04779" lon="5.36307">
        <ele>324</ele>
        <time>2010-11-13T15:33:50.000Z</time>
      </trkpt>
      <trkpt lat="45.04769" lon="5.36286">
        <ele>319.39999389648</ele>
        <time>2010-11-13T15:33:56.000Z</time>
      </trkpt>
      <trkpt lat="45.04795" lon="5.36242">
        <ele>320.79998779297</ele>
        <time>2010-11-13T15:34:11.000Z</time>
      </trkpt>
      <trkpt lat="45.048" lon="5.36235">
        <ele>321.79998779297</ele>
        <time>2010-11-13T15:34:13.000Z</time>
      </trkpt>
      <trkpt lat="45.04803" lon="5.36219">
        <ele>322.20001220703</ele>
        <time>2010-11-13T15:34:17.000Z</time>
      </trkpt>
      <trkpt lat="45.04774" lon="5.36217">
        <ele>313.79998779297</ele>
        <time>2010-11-13T15:34:30.000Z</time>
      </trkpt>
      <trkpt lat="45.0475" lon="5.36224">
        <ele>307.39999389648</ele>
        <time>2010-11-13T15:34:39.000Z</time>
      </trkpt>
      <trkpt lat="45.04733" lon="5.36225">
        <ele>303.60000610352</ele>
        <time>2010-11-13T15:34:44.000Z</time>
      </trkpt>
      <trkpt lat="45.04705" lon="5.36242">
        <ele>298.79998779297</ele>
        <time>2010-11-13T15:34:54.000Z</time>
      </trkpt>
      <trkpt lat="45.04698" lon="5.36251">
        <ele>297.79998779297</ele>
        <time>2010-11-13T15:34:57.000Z</time>
      </trkpt>
      <trkpt lat="45.04688" lon="5.36254">
        <ele>295.79998779297</ele>
        <time>2010-11-13T15:35:02.000Z</time>
      </trkpt>
      <trkpt lat="45.04684" lon="5.36252">
        <ele>294.39999389648</ele>
        <time>2010-11-13T15:35:06.000Z</time>
      </trkpt>
      <trkpt lat="45.04713" lon="5.36234">
        <ele>300</ele>
        <time>2010-11-13T15:35:20.000Z</time>
      </trkpt>
      <trkpt lat="45.04723" lon="5.3622">
        <ele>300.79998779297</ele>
        <time>2010-11-13T15:35:30.000Z</time>
      </trkpt>
      <trkpt lat="45.04723" lon="5.36217">
        <ele>300.60000610352</ele>
        <time>2010-11-13T15:35:54.000Z</time>
      </trkpt>
      <trkpt lat="45.04723" lon="5.36215">
        <ele>300.39999389648</ele>
        <time>2010-11-13T15:36:11.000Z</time>
      </trkpt>
      <trkpt lat="45.04722" lon="5.36215">
        <ele>300</ele>
        <time>2010-11-13T15:36:40.000Z</time>
      </trkpt>
      <trkpt lat="45.04722" lon="5.36215">
        <ele>300.20001220703</ele>
        <time>2010-11-13T15:38:14.000Z</time>
      </trkpt>
      <trkpt lat="45.04699" lon="5.36237">
        <ele>296.79998779297</ele>
        <time>2010-11-13T15:38:24.000Z</time>
      </trkpt>
      <trkpt lat="45.04664" lon="5.36251">
        <ele>290.79998779297</ele>
        <time>2010-11-13T15:38:35.000Z</time>
      </trkpt>
      <trkpt lat="45.04663" lon="5.3625">
        <ele>290.79998779297</ele>
        <time>2010-11-13T15:38:38.000Z</time>
      </trkpt>
    </trkseg>
  </trk>
</gpx>